createdAt,value
2023-03-20T00:02:41.615Z,38.40
2023-03-20T00:07:45.672Z,42.70
2023-03-20T00:12:50.310Z,43.00
2023-03-20T00:17:54.120Z,44.60
2023-03-20T00:22:57.121Z,42.50
2023-03-20T00:28:00.338Z,48.00
2023-03-20T00:33:03.618Z,43.30
2023-03-20T00:38:06.654Z,39.00
2023-03-20T00:43:13.877Z,50.40
2023-03-20T00:48:17.073Z,38.90
2023-03-20T00:53:20.078Z,36.00
2023-03-20T00:58:23.187Z,30.90
2023-03-20T01:03:27.304Z,33.40
2023-03-20T01:08:30.432Z,31.00
2023-03-20T01:13:33.814Z,30.40
2023-03-20T01:18:37.249Z,37.80
2023-03-20T01:23:40.272Z,32.90
2023-03-20T01:28:43.135Z,35.00
2023-03-20T01:33:46.962Z,40.40
2023-03-20T01:38:57.141Z,39.20
2023-03-20T01:44:06.951Z,31.40
2023-03-20T01:49:29.804Z,30.50
2023-03-20T01:54:38.346Z,28.50
2023-03-20T02:00:04.128Z,26.50
2023-03-20T02:05:10.864Z,25.80
2023-03-20T02:10:16.492Z,25.50
2023-03-20T02:15:19.567Z,22.10
2023-03-20T02:20:50.512Z,28.70
2023-03-20T02:26:31.624Z,28.70
2023-03-20T02:32:09.944Z,29.80
2023-03-20T02:37:44.600Z,28.80
2023-03-20T02:43:19.042Z,31.80
2023-03-20T02:48:41.602Z,31.00
2023-03-20T02:53:53.620Z,27.60
2023-03-20T02:59:05.564Z,27.00
2023-03-20T03:04:15.505Z,25.00
2023-03-20T03:09:36.611Z,24.30
2023-03-20T03:14:48.323Z,24.00
2023-03-20T03:19:54.126Z,25.60
2023-03-20T03:24:57.129Z,23.70
2023-03-20T03:30:13.841Z,24.60
2023-03-20T03:35:21.427Z,25.60
2023-03-20T03:40:53.671Z,23.00
2023-03-20T03:46:13.399Z,21.90
2023-03-20T03:51:24.003Z,27.00
2023-03-20T03:56:30.711Z,27.80
2023-03-20T04:01:38.148Z,25.20
2023-03-20T04:06:42.594Z,26.80
2023-03-20T04:11:50.001Z,26.70
2023-03-20T04:16:53.104Z,26.60
2023-03-20T04:21:56.216Z,30.50
2023-03-20T04:26:59.325Z,32.10
2023-03-20T04:32:02.229Z,35.50
2023-03-20T04:37:08.515Z,39.60
2023-03-20T04:42:11.924Z,36.80
2023-03-20T04:47:14.938Z,45.20
2023-03-20T04:52:18.145Z,37.30
2023-03-20T04:57:21.084Z,33.30
2023-03-20T05:02:24.054Z,33.90
2023-03-20T05:07:26.959Z,34.70
2023-03-20T05:12:30.066Z,38.00
2023-03-20T05:17:32.972Z,31.50
2023-03-20T05:22:35.872Z,27.50
2023-03-20T05:27:38.787Z,27.40
2023-03-20T05:32:43.855Z,31.60
2023-03-20T05:37:47.148Z,32.30
2023-03-20T05:42:50.354Z,31.10
2023-03-20T05:47:53.460Z,29.40
2023-03-20T05:52:56.468Z,33.50
2023-03-20T05:57:59.829Z,31.70
2023-03-20T06:03:02.914Z,32.60
2023-03-20T06:08:06.208Z,34.60
2023-03-20T06:13:09.222Z,53.50
2023-03-20T06:18:12.297Z,54.30
2023-03-20T06:23:15.229Z,46.30
2023-03-20T06:28:18.337Z,45.20
2023-03-20T06:33:22.150Z,45.10
2023-03-20T06:38:25.164Z,40.40
2023-03-20T06:43:28.175Z,38.00
2023-03-20T06:48:31.690Z,33.50
2023-03-20T06:53:34.985Z,35.40
2023-03-20T06:58:39.104Z,35.20
2023-03-20T07:03:42.354Z,33.40
2023-03-20T07:08:45.768Z,30.70
2023-03-20T07:13:50.013Z,33.40
2023-03-20T07:18:53.900Z,36.60
2023-03-20T07:23:56.837Z,33.70
2023-03-20T07:28:59.945Z,35.10
2023-03-20T07:34:03.053Z,35.40
2023-03-20T07:39:06.472Z,35.80
2023-03-20T07:44:10.695Z,31.40
2023-03-20T07:49:14.958Z,35.70
2023-03-20T07:54:18.554Z,33.30
2023-03-20T07:59:21.678Z,34.70
2023-03-20T08:04:24.670Z,35.10
2023-03-20T08:09:27.985Z,35.00
2023-03-20T08:14:31.297Z,33.30
2023-03-20T08:19:34.310Z,35.30
2023-03-20T08:24:37.545Z,34.80
2023-03-20T08:29:40.728Z,34.70
2023-03-20T08:34:43.867Z,36.30
2023-03-20T08:39:47.153Z,37.60
2023-03-20T08:44:50.677Z,40.70
2023-03-20T08:49:54.063Z,40.30
2023-03-20T08:54:57.808Z,41.90
2023-03-20T09:00:01.631Z,39.30
2023-03-20T09:05:05.273Z,41.60
2023-03-20T09:10:09.654Z,44.80
2023-03-20T09:15:12.725Z,44.00
2023-03-20T09:20:16.270Z,46.10
2023-03-20T09:25:19.940Z,42.80
2023-03-20T09:30:24.795Z,41.40
2023-03-20T09:35:28.196Z,40.40
2023-03-20T09:40:48.413Z,42.50
2023-03-20T09:46:03.784Z,42.00
2023-03-20T09:51:36.383Z,38.60
2023-03-20T09:56:39.519Z,40.10
2023-03-20T10:01:57.422Z,38.60
2023-03-20T10:07:05.192Z,40.50
2023-03-20T10:12:42.074Z,39.50
2023-03-20T10:18:11.929Z,40.30
2023-03-20T10:23:46.917Z,36.90
2023-03-20T10:28:50.002Z,34.00
2023-03-20T10:33:53.101Z,35.70
2023-03-20T10:39:50.170Z,33.90
2023-03-20T10:45:17.249Z,33.70
2023-03-20T10:50:28.404Z,30.10
2023-03-20T10:55:39.368Z,31.30
2023-03-20T11:00:44.007Z,28.10
2023-03-20T11:06:08.607Z,27.80
2023-03-20T11:11:12.328Z,27.70
2023-03-20T11:16:36.901Z,24.40
2023-03-20T11:22:21.514Z,27.30
2023-03-20T11:27:35.151Z,26.50
2023-03-20T11:32:47.621Z,27.50
2023-03-20T11:37:54.296Z,25.40
2023-03-20T11:43:00.387Z,26.30
2023-03-20T11:48:04.935Z,24.10
2023-03-20T11:53:28.812Z,23.10
2023-03-20T11:58:33.261Z,23.60
2023-03-20T12:03:39.714Z,23.20
2023-03-20T12:08:50.627Z,25.30
2023-03-20T12:13:56.400Z,23.10
2023-03-20T12:19:09.645Z,20.70
2023-03-20T12:24:33.858Z,20.50
2023-03-20T12:29:46.845Z,18.40
2023-03-20T12:34:57.069Z,18.60
2023-03-20T12:45:12.097Z,21.10
2023-03-20T12:50:39.473Z,21.80
2023-03-20T12:55:57.022Z,23.30
2023-03-20T13:01:29.139Z,22.70
2023-03-20T13:07:01.619Z,20.70
2023-03-20T13:12:10.757Z,19.50
2023-03-20T13:17:27.992Z,19.10
2023-03-20T13:22:58.361Z,20.00
2023-03-20T13:33:42.765Z,19.80
2023-03-20T13:38:51.551Z,18.70
2023-03-20T13:44:01.377Z,19.20
2023-03-20T13:49:21.166Z,18.40
2023-03-20T13:54:54.165Z,19.60
2023-03-20T14:00:25.246Z,19.20
2023-03-20T14:05:31.011Z,19.80
2023-03-20T14:10:35.810Z,20.80
2023-03-20T14:15:45.830Z,21.40
2023-03-20T14:21:01.327Z,20.40
2023-03-20T14:26:32.186Z,21.60
2023-03-20T14:31:38.558Z,22.30
2023-03-20T14:37:23.669Z,25.70
2023-03-20T14:42:50.015Z,26.60
2023-03-20T14:48:25.385Z,35.50
2023-03-20T14:53:29.207Z,26.60
2023-03-20T14:58:41.396Z,24.10
2023-03-20T15:04:01.098Z,25.70
2023-03-20T15:09:10.738Z,32.40
2023-03-20T15:14:21.971Z,25.90
2023-03-20T15:19:25.602Z,23.10
2023-03-20T15:24:30.361Z,25.60
2023-03-20T15:29:34.588Z,25.60
2023-03-20T15:34:41.020Z,40.80
2023-03-20T15:40:14.812Z,55.90
2023-03-20T15:45:27.358Z,49.60
2023-03-20T15:50:33.491Z,29.00
2023-03-20T15:55:36.828Z,27.50
2023-03-20T16:00:46.293Z,29.50
2023-03-20T16:05:51.815Z,50.80
2023-03-20T16:11:07.893Z,34.70
2023-03-20T16:16:17.869Z,28.20
2023-03-20T16:21:43.857Z,44.20
2023-03-20T16:26:51.064Z,35.80
2023-03-20T16:32:10.794Z,25.40
2023-03-20T16:37:31.934Z,13.60
2023-03-20T16:42:37.777Z,14.50
2023-03-20T16:47:43.055Z,18.10
2023-03-20T16:52:50.309Z,21.10
2023-03-20T16:57:58.074Z,17.40
2023-03-20T17:03:07.000Z,20.70
2023-03-20T17:08:14.554Z,22.50
2023-03-20T17:13:17.644Z,20.80
2023-03-20T17:18:20.846Z,18.90
2023-03-20T17:23:24.081Z,17.60
2023-03-20T17:28:34.203Z,15.20
2023-03-20T17:33:37.145Z,16.70
2023-03-20T17:38:40.469Z,15.70
2023-03-20T17:43:44.187Z,15.00
2023-03-20T17:48:48.940Z,15.90
2023-03-20T17:53:57.885Z,14.90
2023-03-20T17:59:03.643Z,15.50
2023-03-20T18:04:06.962Z,12.40
2023-03-20T18:09:13.533Z,13.90
2023-03-20T18:14:19.112Z,13.80
2023-03-20T18:19:26.730Z,13.80
2023-03-20T18:24:29.944Z,13.60
2023-03-20T18:29:33.360Z,14.30
2023-03-20T18:34:36.466Z,13.90
2023-03-20T18:39:39.578Z,11.90
2023-03-20T18:44:42.682Z,16.70
2023-03-20T18:49:45.800Z,17.00
2023-03-20T18:54:49.002Z,16.00
2023-03-20T18:59:52.062Z,16.20
2023-03-20T19:04:55.229Z,16.10
2023-03-20T19:09:58.433Z,15.80
2023-03-20T19:15:01.962Z,15.10
2023-03-20T19:20:06.279Z,20.60
2023-03-20T19:25:09.809Z,24.50
2023-03-20T19:30:32.271Z,25.90
2023-03-20T19:35:58.778Z,30.10
2023-03-20T19:41:01.806Z,32.00
2023-03-20T19:46:05.510Z,24.00
2023-03-20T19:51:15.094Z,24.70
2023-03-20T19:56:20.178Z,24.10
2023-03-20T20:01:25.382Z,30.40
2023-03-20T20:06:32.038Z,24.90
2023-03-20T20:11:35.953Z,21.40
2023-03-20T20:16:43.291Z,20.00
2023-03-20T20:27:17.317Z,20.20
2023-03-20T20:32:25.039Z,20.40
2023-03-20T20:38:13.996Z,19.70
2023-03-20T20:42:54.273Z,20.20
2023-03-20T20:47:57.401Z,19.30
2023-03-20T20:53:00.518Z,18.40
2023-03-20T20:58:05.876Z,19.50
2023-03-20T21:03:09.202Z,18.70
2023-03-20T21:08:14.612Z,18.20
2023-03-20T21:13:20.242Z,20.30
2023-03-20T21:18:23.340Z,20.50
2023-03-20T21:23:26.347Z,18.90
2023-03-20T21:28:29.859Z,16.70
2023-03-20T21:33:36.011Z,16.60
2023-03-20T21:44:04.337Z,16.70
2023-03-20T21:49:50.288Z,16.10
2023-03-20T22:11:31.379Z,5.20
2023-03-20T22:16:49.097Z,4.70
2023-03-20T22:22:22.962Z,4.60
2023-03-20T22:27:52.627Z,4.50
2023-03-20T22:43:55.287Z,4.30
2023-03-20T22:48:23.794Z,4.90
2023-03-20T22:53:27.004Z,4.40
2023-03-20T22:58:30.417Z,3.90
2023-03-20T23:03:41.418Z,4.40
2023-03-20T23:08:50.867Z,4.30
2023-03-20T23:13:57.976Z,4.50
2023-03-20T23:19:01.498Z,4.40
2023-03-20T23:24:05.206Z,5.20
2023-03-20T23:29:08.227Z,4.20
2023-03-20T23:34:11.436Z,5.40
2023-03-20T23:39:15.441Z,5.30
2023-03-20T23:44:18.370Z,4.90
2023-03-20T23:49:21.587Z,4.40
2023-03-20T23:54:24.789Z,4.90
2023-03-20T23:59:29.754Z,4.90
